Time;durP1;ratioP1;P1;durP2;ratioP2;P2;SDS_P1;SDS_P2;PMS_P1;PMS_P2;Temp;Humidity;BMP_temperature;BMP_pressure;BME280_temperature;BME280_humidity;BME280_pressure;Samples;Min_cycle;Max_cycle;Signal;HPM_P1;HPM_P2
2022/04/17 00:00:14;;;;;;;6.53;3.88;;;7.50;61.00;;;6.38;50.51;98535.34;5072393;28;20396;-75
2022/04/17 00:02:40;;;;;;;5.43;3.72;;;7.40;62.90;;;6.36;49.43;98537.34;5072892;28;20503;-74
2022/04/17 00:05:07;;;;;;;6.20;3.67;;;7.40;61.40;;;6.33;49.23;98537.72;5072827;28;20414;-74
2022/04/17 00:07:34;;;;;;;4.40;3.35;;;7.40;61.30;;;6.28;49.91;98539.31;5072725;28;20407;-74
2022/04/17 00:10:01;;;;;;;5.57;3.35;;;7.30;61.80;;;6.18;51.15;98547.56;5072719;28;20396;-74
2022/04/17 00:12:27;;;;;;;4.47;3.22;;;7.30;63.40;;;6.09;52.06;98544.28;5072202;28;20403;-73
2022/04/17 00:14:57;;;;;;;7.47;3.35;;;7.20;64.60;;;6.02;53.06;98537.34;5050549;28;20428;-73
2022/04/17 00:17:24;;;;;;;4.95;3.35;;;7.10;66.10;;;5.94;54.02;98540.16;5068278;28;20421;-74
2022/04/17 00:19:50;;;;;;;8.13;4.00;;;7.00;67.40;;;5.96;52.99;98538.13;5083607;28;20405;-73
2022/04/17 00:22:16;;;;;;;5.13;3.50;;;7.00;67.10;;;5.89;53.41;98532.84;5084654;28;20422;-73
2022/04/17 00:24:42;;;;;;;5.07;3.50;;;7.00;66.90;;;5.84;52.30;98535.22;5086668;28;20394;-73
2022/04/17 00:27:09;;;;;;;4.07;3.35;;;6.90;65.70;;;5.79;51.98;98527.88;5083289;28;20386;-74
2022/04/17 00:29:35;;;;;;;5.43;3.58;;;6.90;65.10;;;5.80;52.17;98528.69;5092391;28;20398;-74
2022/04/17 00:32:01;;;;;;;5.40;3.60;;;6.90;66.30;;;5.72;53.13;98519.16;5084442;28;20394;-74
2022/04/17 00:34:30;;;;;;;5.07;3.65;;;6.80;67.60;;;5.80;51.76;98515.56;5071631;28;20417;-74
2022/04/17 00:37:00;;;;;;;6.65;3.67;;;6.80;66.30;;;5.76;52.16;98503.84;5084307;28;20414;-74
2022/04/17 00:39:26;;;;;;;5.05;3.63;;;6.80;65.90;;;5.72;52.38;98505.22;5086001;28;20398;-74
2022/04/17 00:41:55;;;;;;;5.00;3.70;;;6.80;66.00;;;5.77;51.35;98508.09;5073790;28;20405;-75
2022/04/17 00:44:22;;;;;;;5.85;3.58;;;6.80;64.70;;;5.75;51.17;98500.41;5092327;28;20481;-74
2022/04/17 00:46:48;;;;;;;4.82;3.30;;;6.80;64.30;;;5.70;51.96;98507.25;5092378;28;20458;-74
2022/04/17 00:49:14;;;;;;;6.85;4.00;;;6.80;64.80;;;5.76;50.61;98501.22;5092170;28;20394;-74
2022/04/17 00:51:43;;;;;;;6.18;3.75;;;6.80;63.80;;;5.62;51.28;98499.50;5091857;28;20401;-73
2022/04/17 00:54:12;;;;;;;5.30;3.88;;;6.70;64.10;;;5.67;51.73;98494.47;5092074;28;20420;-74
2022/04/17 00:56:38;;;;;;;7.47;3.70;;;6.70;64.90;;;5.68;50.40;98496.91;5092062;28;20453;-73
2022/04/17 00:59:06;;;;;;;5.97;3.83;;;6.70;63.70;;;5.58;51.82;98498.25;5091993;28;20409;-73
2022/04/17 01:01:33;;;;;;;6.43;4.05;;;6.70;64.40;;;5.62;51.53;98491.63;5091621;28;20891;-72
2022/04/17 01:03:59;;;;;;;5.65;3.90;;;6.70;64.60;;;5.57;51.34;98483.50;5092051;28;20492;-75
2022/04/17 01:06:25;;;;;;;5.05;3.53;;;6.70;64.00;;;5.58;50.19;98485.13;5091859;28;20394;-73
2022/04/17 01:08:53;;;;;;;5.32;3.55;;;6.70;62.80;;;5.55;50.91;98483.69;5091727;28;20875;-73
2022/04/17 01:11:19;;;;;;;5.70;3.63;;;6.60;63.50;;;5.47;51.75;98483.84;5091402;28;20463;-73
2022/04/17 01:13:45;;;;;;;6.05;4.03;;;6.60;64.60;;;5.52;52.28;98491.13;5073518;28;20928;-72
2022/04/17 01:16:14;;;;;;;6.22;3.22;;;6.60;65.80;;;5.38;53.54;98482.34;5091534;28;20548;-73
2022/04/17 01:18:56;;;;;;;4.57;3.50;;;6.50;66.80;;;5.28;54.45;98489.75;5091568;28;20399;-73
2022/04/17 01:21:24;;;;;;;5.20;3.63;;;6.40;68.20;;;5.39;52.60;98484.00;5091594;28;20402;-73
2022/04/17 01:29:21;;;;;;;4.68;3.38;;;6.30;67.20;;;5.09;55.10;98475.47;5091822;28;20393;-74
2022/04/17 01:31:47;;;;;;;5.68;3.47;;;6.20;68.70;;;5.03;55.15;98479.69;5091189;28;20394;-73
2022/04/17 01:34:15;;;;;;;5.65;3.67;;;6.20;69.20;;;5.01;55.21;98468.53;5091694;28;20437;-73
2022/04/17 01:36:43;;;;;;;5.00;3.60;;;6.10;69.20;;;4.97;55.52;98466.47;5091391;28;20413;-74
2022/04/17 01:39:08;;;;;;;5.95;3.60;;;6.10;69.80;;;4.89;56.86;98466.59;5091694;28;20405;-74
2022/04/17 01:41:34;;;;;;;6.63;3.70;;;6.00;71.30;;;4.80;58.05;98465.13;5090970;28;20573;-74
2022/04/17 01:44:00;;;;;;;4.75;3.67;;;6.00;73.00;;;4.77;58.10;98468.91;5091138;28;20410;-73
2022/04/17 01:46:26;;;;;;;4.93;3.60;;;5.90;73.60;;;4.75;57.67;98455.19;5072951;28;20531;-73
2022/04/17 01:48:54;;;;;;;6.22;3.90;;;5.90;72.80;;;4.74;56.82;98458.78;5072750;28;20441;-74
2022/04/17 01:51:20;;;;;;;7.15;4.00;;;5.90;72.50;;;4.66;57.35;98457.09;5090701;28;20463;-74
2022/04/17 01:53:48;;;;;;;4.73;3.40;;;5.80;72.90;;;4.64;57.45;98451.25;5091045;28;20394;-74
2022/04/17 01:56:13;;;;;;;5.45;4.40;;;5.80;72.50;;;4.67;56.50;98443.00;5090794;28;20460;-73
2022/04/17 01:58:40;;;;;;;5.50;3.50;;;5.80;72.00;;;4.55;57.48;98451.56;5072658;28;20725;-73
2022/04/17 02:01:05;;;;;;;5.82;4.18;;;5.70;72.70;;;4.51;57.65;98442.47;5072513;28;20892;-75
2022/04/17 02:03:32;;;;;;;4.47;3.73;;;5.60;73.50;;;4.47;57.58;98447.25;5091546;28;20416;-73
2022/04/17 02:06:00;;;;;;;4.80;3.80;;;5.60;73.10;;;4.40;58.71;98448.16;5091107;28;20406;-73
2022/04/17 02:08:28;;;;;;;4.47;3.70;;;5.60;74.30;;;4.36;58.75;98446.94;5092911;28;20424;-73
2022/04/17 02:10:56;;;;;;;5.38;4.22;;;5.50;74.70;;;4.32;59.07;98445.66;5091555;28;20903;-73
2022/04/17 02:13:23;;;;;;;6.18;4.03;;;5.50;75.10;;;4.30;58.80;98443.22;5090707;28;20493;-74
2022/04/17 02:15:53;;;;;;;6.28;4.15;;;5.50;75.10;;;4.32;57.15;98433.38;5090654;28;20394;-74
2022/04/17 02:18:20;;;;;;;4.68;3.78;;;5.40;74.40;;;4.22;59.45;98438.09;5090645;28;20923;-73
2022/04/17 02:20:47;;;;;;;7.80;4.03;;;5.40;75.70;;;4.19;59.38;98439.28;5090115;28;20410;-74
2022/04/17 02:23:13;;;;;;;7.13;3.97;;;5.40;75.90;;;4.17;58.95;98433.41;5090728;28;20523;-74
2022/04/17 02:25:39;;;;;;;4.53;3.65;;;5.30;75.70;;;4.12;59.52;98440.22;5089190;28;20891;-74
2022/04/17 02:28:06;;;;;;;5.20;4.03;;;5.30;75.80;;;4.13;58.94;98436.59;5090524;28;20438;-74
2022/04/17 02:30:32;;;;;;;7.60;4.10;;;5.30;75.60;;;4.15;58.07;98429.34;5089997;28;20402;-73
2022/04/17 02:32:58;;;;;;;8.13;4.20;;;5.30;75.20;;;4.02;59.72;98434.44;5090616;28;20455;-73
2022/04/17 02:35:24;;;;;;;5.63;3.87;;;5.20;76.40;;;3.98;60.19;98431.38;5090264;28;20520;-74
2022/04/17 02:37:49;;;;;;;6.22;4.00;;;5.20;77.20;;;3.96;60.33;98424.69;5090216;28;20410;-73
2022/04/17 02:40:15;;;;;;;5.53;4.13;;;5.10;77.50;;;3.88;61.09;98417.75;5089897;28;20889;-74
2022/04/17 02:42:42;;;;;;;5.35;4.30;;;5.10;78.20;;;3.79;62.15;98414.41;5090278;28;20442;-75
2022/04/17 02:45:10;;;;;;;5.47;4.00;;;5.00;79.50;;;3.79;61.82;98418.84;5090228;28;20480;-74
2022/04/17 02:47:51;;;;;;;5.85;4.25;;;5.00;79.50;;;3.74;61.99;98410.72;5090338;28;20395;-75
2022/04/17 02:50:19;;;;;;;6.20;4.30;;;4.90;79.70;;;3.74;61.70;98410.72;5093235;28;20883;-74
2022/04/17 02:52:45;;;;;;;6.03;4.60;;;4.90;79.30;;;3.69;61.95;98408.63;5094547;28;20398;-74
2022/04/17 02:55:12;;;;;;;6.32;4.22;;;4.90;80.00;;;3.66;61.57;98402.97;5094319;28;20404;-74
2022/04/17 02:57:38;;;;;;;5.13;4.10;;;4.90;79.50;;;3.61;61.73;98405.34;5094338;28;20514;-73
2022/04/17 03:00:07;;;;;;;5.20;4.40;;;4.80;79.80;;;3.53;62.41;98401.00;5094217;28;20409;-74
2022/04/17 03:05:36;;;;;;;6.70;4.20;;;4.70;81.30;;;3.40;63.29;98399.00;5094363;28;20743;-74
2022/04/17 03:08:04;;;;;;;4.90;4.00;;;4.60;81.70;;;3.36;63.14;98399.56;5094338;28;20398;-74
2022/04/17 03:10:30;;;;;;;5.55;4.22;;;4.60;82.10;;;3.28;64.05;98391.78;5093685;28;20425;-74
2022/04/17 03:12:56;;;;;;;5.57;4.28;;;4.50;82.90;;;3.26;64.37;98386.72;5094138;28;20448;-74
2022/04/17 03:15:23;;;;;;;5.82;4.30;;;4.50;83.40;;;3.23;64.18;98383.69;5094001;28;20394;-74
2022/04/17 03:17:51;;;;;;;6.68;4.15;;;4.50;83.60;;;3.27;63.59;98396.22;5093888;28;20421;-74
2022/04/17 03:20:17;;;;;;;5.20;4.30;;;4.50;83.20;;;3.19;64.48;98385.00;5093456;28;20401;-73
2022/04/17 03:22:43;;;;;;;8.02;4.80;;;4.40;84.00;;;3.22;64.15;98392.50;5093979;28;20406;-74
2022/04/17 03:25:10;;;;;;;5.47;4.47;;;4.40;83.90;;;3.17;64.48;98392.22;5093850;28;20408;-75
2022/04/17 03:27:36;;;;;;;5.72;4.60;;;4.30;84.00;;;3.11;64.61;98397.19;5093801;28;20728;-74
2022/04/17 03:30:03;;;;;;;6.78;4.82;;;4.30;84.30;;;3.06;64.79;98398.72;5093623;28;20402;-74
2022/04/17 03:32:29;;;;;;;6.57;4.60;;;4.30;84.50;;;3.08;64.12;98394.13;5093310;28;20405;-75
2022/04/17 03:34:56;;;;;;;6.10;4.93;;;4.30;84.30;;;3.08;63.99;98394.91;5093456;28;20406;-74
2022/04/17 03:37:22;;;;;;;6.25;4.72;;;4.20;84.50;;;2.98;64.74;98401.41;5093545;28;20420;-74
2022/04/17 03:39:51;;;;;;;6.88;5.35;;;4.20;84.80;;;2.97;64.33;98405.00;5093530;28;20394;-74
2022/04/17 03:42:17;;;;;;;6.87;4.90;;;4.20;84.60;;;2.83;64.95;98401.38;5093234;28;20394;-74
2022/04/17 03:44:43;;;;;;;6.63;5.05;;;4.10;85.40;;;2.75;65.58;98404.06;5093521;28;20763;-74
2022/04/17 03:47:09;;;;;;;6.50;4.63;;;4.00;86.30;;;2.73;65.79;98401.63;5093533;28;20401;-74
2022/04/17 03:49:35;;;;;;;9.05;4.78;;;4.00;86.70;;;2.69;66.01;98412.59;5093256;28;20398;-75
2022/04/17 03:52:04;;;;;;;7.28;5.50;;;3.90;87.20;;;2.61;66.50;98404.81;5093068;28;20401;-75
2022/04/17 03:54:30;;;;;;;7.88;4.97;;;3.90;87.90;;;2.55;67.45;98406.34;5093245;28;20398;-74
2022/04/17 03:56:56;;;;;;;7.97;5.20;;;3.80;88.60;;;2.60;66.62;98401.41;5093167;28;20495;-75
2022/04/17 03:59:22;;;;;;;5.82;4.40;;;3.80;88.70;;;2.52;66.80;98404.06;5093155;28;20401;-74
2022/04/17 04:01:48;;;;;;;7.07;5.50;;;3.80;88.70;;;2.55;66.58;98401.13;5092902;28;20418;-73
2022/04/17 04:04:15;;;;;;;9.13;5.15;;;3.80;88.60;;;2.45;67.72;98408.38;5093058;28;20402;-74
2022/04/17 04:06:41;;;;;;;6.47;4.93;;;3.70;89.60;;;2.39;68.12;98410.88;5093217;28;20917;-75
2022/04/17 04:09:08;;;;;;;8.32;5.40;;;3.60;90.00;;;2.36;67.95;98411.22;5092964;28;20402;-74
2022/04/17 04:11:34;;;;;;;8.07;5.50;;;3.60;90.20;;;2.33;68.63;98407.16;5092591;28;20402;-74
2022/04/17 04:14:00;;;;;;;7.38;5.18;;;3.60;90.40;;;2.34;67.65;98403.53;5093009;28;20417;-73
2022/04/17 04:16:26;;;;;;;7.57;5.20;;;3.60;90.30;;;2.30;68.50;98403.09;5092812;28;20905;-74
2022/04/17 04:18:52;;;;;;;7.17;4.90;;;3.60;90.70;;;2.24;68.84;98398.56;5092853;28;20390;-74
2022/04/17 04:21:18;;;;;;;6.90;5.10;;;3.50;90.90;;;2.18;69.29;98394.00;5092507;28;20423;-75
2022/04/17 04:23:44;;;;;;;6.75;5.00;;;3.40;91.10;;;2.16;69.24;98390.78;5092846;28;20401;-74
2022/04/17 04:26:11;;;;;;;5.40;4.53;;;3.40;91.20;;;2.17;68.89;98400.25;5092703;28;20398;-73
2022/04/17 04:28:37;;;;;;;6.32;5.13;;;3.40;91.00;;;2.12;68.98;98394.69;5092643;28;20390;-73
2022/04/17 04:31:08;;;;;;;6.93;5.15;;;3.40;91.10;;;2.07;69.28;98394.41;5092272;28;20400;-74
2022/04/17 04:33:35;;;;;;;7.00;4.80;;;3.30;91.50;;;2.09;69.04;98395.06;5092715;28;20883;-74
2022/04/17 04:36:04;;;;;;;8.45;5.22;;;3.30;91.40;;;2.07;69.32;98394.41;5082694;22;20933;-81
2022/04/17 04:38:30;;;;;;;5.32;4.40;;;3.30;91.40;;;2.05;69.19;98392.94;5051905;28;20806;-79
2022/04/17 04:40:57;;;;;;;5.75;4.47;;;3.30;91.50;;;2.05;69.21;98392.94;5051371;28;20405;-81
2022/04/17 04:43:24;;;;;;;6.80;4.70;;;3.30;91.60;;;2.02;69.56;98394.13;5051822;28;20436;-80
2022/04/17 04:46:09;;;;;;;6.00;4.83;;;3.30;91.80;;;1.99;69.84;98402.28;5051673;28;20401;-82
2022/04/17 04:51:21;;;;;;;6.53;4.60;;;3.30;92.00;;;2.05;69.24;98406.00;5031734;28;20410;-81
2022/04/17 04:53:47;;;;;;;5.28;4.47;;;3.30;91.80;;;2.04;69.61;98412.22;5031889;28;20395;-81
2022/04/17 04:56:13;;;;;;;4.78;4.15;;;3.30;92.00;;;2.08;69.46;98414.31;5031878;28;20768;-81
2022/04/17 04:58:41;;;;;;;6.47;4.57;;;3.30;91.90;;;2.10;68.99;98414.16;5031826;28;20446;-81
2022/04/17 05:01:10;;;;;;;7.68;4.70;;;3.40;91.80;;;2.11;69.39;98405.31;5031222;28;20407;-81
2022/04/17 05:03:36;;;;;;;6.50;5.05;;;3.30;92.00;;;2.10;70.22;98414.97;5031719;28;20411;-81
2022/04/17 05:06:02;;;;;;;7.03;4.77;;;3.30;92.30;;;2.13;70.39;98414.63;5031707;28;20409;-81
2022/04/17 05:08:28;;;;;;;6.23;4.97;;;3.40;92.50;;;2.19;69.98;98408.69;5031588;28;20404;-81
2022/04/17 05:10:55;;;;;;;6.20;4.40;;;3.40;92.50;;;2.26;70.71;98408.81;5031195;28;20407;-81
2022/04/17 05:13:21;;;;;;;6.47;5.30;;;3.50;92.90;;;2.31;70.06;98409.13;5031137;28;20408;-81
2022/04/17 05:15:48;;;;;;;6.15;4.40;;;3.50;92.80;;;2.32;70.63;98402.91;5031470;28;20744;-80
2022/04/17 05:18:15;;;;;;;9.27;4.90;;;3.60;92.80;;;2.35;70.66;98392.09;5031321;28;20426;-81
2022/04/17 05:20:40;;;;;;;6.25;4.60;;;3.60;92.60;;;2.39;70.26;98395.19;5031060;28;20403;-81
2022/04/17 05:23:29;;;;;;;5.03;4.15;;;3.60;92.60;;;2.45;69.52;98404.94;5031346;28;20899;-79
2022/04/17 05:25:57;;;;;;;6.47;4.85;;;3.70;92.30;;;2.56;69.00;98407.13;5031359;28;20426;-81
2022/04/17 05:28:23;;;;;;;6.82;4.75;;;3.80;92.10;;;2.64;67.62;98394.81;5031411;28;20501;-81
2022/04/17 05:30:51;;;;;;;5.23;3.93;;;3.90;91.50;;;2.61;68.83;98391.75;5030883;28;21108;-81
2022/04/17 05:33:18;;;;;;;4.80;4.18;;;3.90;91.60;;;2.69;67.95;98400.34;5031201;28;20401;-79
2022/04/17 05:35:45;;;;;;;6.15;4.72;;;4.00;91.40;;;2.82;67.02;98406.78;5030894;28;20434;-82
2022/04/17 05:38:11;;;;;;;5.77;4.30;;;4.00;90.90;;;2.86;67.05;98401.00;5030849;28;20905;-81
2022/04/17 05:40:41;;;;;;;5.82;4.60;;;4.10;91.00;;;2.98;66.42;98396.16;5030408;28;20411;-81
2022/04/17 05:43:07;;;;;;;5.38;4.38;;;4.20;90.40;;;2.96;66.91;98400.75;5031140;28;20753;-81
2022/04/17 05:45:34;;;;;;;5.60;4.38;;;4.20;90.60;;;2.98;67.19;98406.63;5033398;28;20491;-77
2022/04/17 05:48:02;;;;;;;6.97;4.82;;;4.20;90.70;;;3.09;65.95;98401.78;5034639;28;20405;-79
2022/04/17 05:50:28;;;;;;;6.90;4.50;;;4.30;90.00;;;3.19;65.75;98403.31;5022112;28;20410;-79
2022/04/17 05:52:55;;;;;;;6.20;4.43;;;4.40;89.80;;;3.27;64.94;98404.06;5039821;28;20892;-76
2022/04/17 05:55:21;;;;;;;7.78;4.30;;;4.50;88.60;;;3.34;64.70;98404.97;5032026;28;20398;-76
2022/04/17 05:57:47;;;;;;;6.63;4.32;;;4.50;88.50;;;3.42;64.62;98407.50;5043852;28;20417;-77
2022/04/17 06:00:16;;;;;;;7.30;3.97;;;4.60;88.00;;;3.52;63.66;98415.09;5049886;28;20413;-77
2022/04/17 06:02:43;;;;;;;6.28;4.55;;;4.70;87.20;;;3.65;63.29;98419.66;5050339;28;20437;-78
2022/04/17 06:05:11;;;;;;;6.28;4.35;;;4.80;86.50;;;3.68;63.30;98419.31;5050052;28;20401;-80
2022/04/17 06:07:37;;;;;;;5.53;4.05;;;4.90;86.20;;;3.75;63.02;98425.44;5050527;28;20393;-78
2022/04/17 06:10:05;;;;;;;6.45;4.15;;;4.90;85.80;;;3.82;62.75;98419.31;5050183;28;20398;-77
2022/04/17 06:12:31;;;;;;;4.63;3.77;;;5.00;85.70;;;3.86;63.18;98417.13;5031985;28;20491;-78
2022/04/17 06:14:57;;;;;;;5.70;4.00;;;5.00;85.90;;;3.93;62.72;98415.38;5051512;28;20763;-80
2022/04/17 06:17:23;;;;;;;5.05;3.88;;;5.10;85.40;;;3.98;62.88;98402.56;5053332;28;20921;-80
2022/04/17 06:19:49;;;;;;;6.00;4.03;;;5.20;85.30;;;4.07;62.40;98411.09;5070161;28;20545;-81
2022/04/17 06:22:25;;;;;;;5.40;3.88;;;5.20;84.50;;;4.13;60.85;98403.34;5048516;28;20491;-83
2022/04/17 06:25:05;;;;;;;5.88;4.13;;;5.30;82.60;;;4.20;58.50;98406.84;5026337;28;20489;-80
2022/04/17 06:27:41;;;;;;;5.65;3.90;;;5.40;79.20;;;4.27;58.75;98399.88;5044276;28;20897;-80
2022/04/17 06:30:10;;;;;;;5.07;3.65;;;5.40;79.20;;;4.36;58.82;98405.78;5045290;28;20400;-80
2022/04/17 06:32:37;;;;;;;5.88;4.20;;;5.50;79.40;;;4.46;58.14;98402.84;5041261;28;20395;-80
2022/04/17 06:35:03;;;;;;;4.47;3.28;;;5.60;78.50;;;4.52;58.44;98405.53;5031045;28;20888;-80
2022/04/17 06:37:31;;;;;;;7.15;4.25;;;5.60;78.50;;;4.58;56.65;98406.63;5038642;28;21092;-81
2022/04/17 06:40:00;;;;;;;5.30;3.47;;;5.70;75.80;;;4.63;56.85;98404.25;5039228;28;20491;-79
2022/04/17 06:42:26;;;;;;;4.90;3.95;;;5.70;76.40;;;4.71;56.75;98404.09;5044171;28;20403;-81
2022/04/17 06:44:53;;;;;;;5.87;3.63;;;5.80;76.00;;;4.76;54.57;98401.72;5043345;28;20393;-81
2022/04/17 06:47:19;;;;;;;5.97;3.42;;;5.90;73.20;;;4.78;54.63;98394.50;5049361;28;20393;-80
2022/04/17 06:49:46;;;;;;;5.77;3.73;;;5.90;72.70;;;4.87;54.65;98395.97;5035071;28;20879;-81
2022/04/17 06:52:12;;;;;;;5.25;3.67;;;6.00;73.10;;;4.94;54.35;98393.41;5041220;28;20882;-81
2022/04/17 06:54:39;;;;;;;4.70;3.35;;;6.00;72.40;;;5.00;54.41;98388.19;5059610;28;20401;-77
2022/04/17 06:57:05;;;;;;;5.85;3.13;;;6.10;71.50;;;5.07;53.69;98393.50;5067723;28;20423;-77
2022/04/17 06:59:31;;;;;;;4.15;3.22;;;6.20;71.20;;;5.16;52.84;98397.59;5058303;28;20421;-80
2022/04/17 07:01:57;;;;;;;4.45;3.17;;;6.20;69.40;;;5.22;53.01;98388.97;5055683;28;20464;-79
2022/04/17 07:04:24;;;;;;;4.63;3.30;;;6.30;69.90;;;5.26;51.73;98386.78;5053999;28;20889;-80
2022/04/17 07:06:50;;;;;;;5.57;3.40;;;6.30;67.80;;;5.31;52.75;98389.63;5078270;28;20479;-79
2022/04/17 07:09:16;;;;;;;5.35;3.22;;;6.40;69.10;;;5.36;52.91;98389.84;5077842;28;20452;-79
2022/04/17 07:11:43;;;;;;;5.25;3.53;;;6.40;69.70;;;5.43;52.63;98385.44;5076942;28;20407;-79
2022/04/17 07:14:12;;;;;;;4.70;3.30;;;6.50;69.80;;;5.49;52.40;98387.28;5076475;28;20491;-79
2022/04/17 07:16:39;;;;;;;4.97;3.40;;;6.50;69.30;;;5.54;51.05;98382.28;5062653;28;20401;-79
2022/04/17 07:19:05;;;;;;;7.50;3.33;;;6.60;67.20;;;5.63;51.64;98389.00;5051257;28;20467;-79
2022/04/17 07:21:33;;;;;;;6.38;3.28;;;6.70;67.70;;;5.68;50.87;98389.22;5040064;28;20413;-80
2022/04/17 07:23:59;;;;;;;6.30;3.40;;;6.70;66.40;;;5.76;50.37;98380.34;5062056;28;20555;-79
2022/04/17 07:26:27;;;;;;;5.22;3.22;;;6.80;65.50;;;5.83;49.50;98371.50;5039752;28;20433;-79
2022/04/17 07:28:55;;;;;;;5.88;3.08;;;6.90;64.80;;;5.89;50.27;98377.81;5056726;28;20408;-79
2022/04/17 07:31:21;;;;;;;6.72;3.28;;;6.90;65.30;;;5.93;50.77;98365.09;5038951;28;20401;-76
2022/04/17 07:33:47;;;;;;;6.82;3.30;;;7.00;66.40;;;6.02;50.06;98371.78;5049148;28;20398;-77
2022/04/17 07:36:13;;;;;;;7.00;3.03;;;7.00;65.00;;;6.08;47.76;98368.38;5052273;28;20913;-77
2022/04/17 07:38:39;;;;;;;4.28;2.70;;;7.10;62.20;;;6.17;49.13;98357.47;5053201;28;20417;-78
2022/04/17 07:41:05;;;;;;;5.13;2.80;;;7.20;62.90;;;6.26;46.97;98360.72;5052932;28;20460;-76
2022/04/17 07:43:31;;;;;;;4.45;2.78;;;7.30;60.50;;;6.31;46.41;98349.63;5058876;28;20443;-78
2022/04/17 07:45:59;;;;;;;3.70;2.72;;;7.40;59.50;;;6.35;47.33;98358.72;5059967;28;20409;-78
2022/04/17 07:48:25;;;;;;;5.13;2.95;;;7.40;60.40;;;6.43;46.10;98356.72;5039488;28;21110;-79
2022/04/17 07:50:54;;;;;;;4.50;2.90;;;7.50;59.00;;;6.50;47.00;98344.38;5051861;28;20502;-79
2022/04/17 07:53:20;;;;;;;4.20;2.95;;;7.50;59.50;;;6.53;46.60;98340.56;5056659;28;20933;-77
2022/04/17 07:55:47;;;;;;;5.10;2.77;;;7.60;59.50;;;6.65;47.23;98359.16;5050199;28;20418;-77
2022/04/17 07:58:34;;;;;;;4.30;2.77;;;7.70;60.50;;;6.73;46.22;98344.00;5055392;28;20409;-78
2022/04/17 08:01:10;;;;;;;4.85;2.72;;;7.70;58.90;;;6.76;45.98;98346.22;5054790;28;20397;-78
2022/04/17 08:03:46;;;;;;;4.18;2.58;;;7.80;59.70;;;6.83;46.63;98348.84;5064505;28;20411;-77
2022/04/17 08:06:15;;;;;;;5.43;2.80;;;7.90;59.20;;;6.91;47.15;98346.81;5072811;28;20441;-77
2022/04/17 08:08:42;;;;;;;3.88;2.30;;;7.90;60.30;;;7.10;46.34;98333.81;5065921;28;20392;-76
2022/04/17 08:11:10;;;;;;;4.22;2.70;;;8.10;59.50;;;7.15;47.48;98339.28;5062868;28;20404;-79
2022/04/17 08:13:36;;;;;;;4.13;2.80;;;8.10;60.10;;;7.24;44.31;98338.03;5050017;28;20458;-79
2022/04/17 08:16:05;;;;;;;4.82;2.70;;;8.30;56.90;;;7.29;44.18;98341.66;5064333;28;20460;-78
2022/04/17 08:18:33;;;;;;;5.03;2.50;;;8.30;56.50;;;7.29;41.98;98338.25;5066432;28;20451;-80
2022/04/17 08:20:59;;;;;;;5.37;3.00;;;8.30;53.50;;;7.33;43.10;98348.16;5051728;28;20412;-80
2022/04/17 08:23:25;;;;;;;5.47;2.70;;;8.30;55.00;;;7.37;43.67;98340.63;5060088;28;20802;-79
2022/04/17 08:25:52;;;;;;;3.78;2.47;;;8.40;55.30;;;7.56;46.23;98337.16;5045042;28;20783;-79
2022/04/17 08:28:18;;;;;;;3.72;2.67;;;8.40;58.10;;;7.52;43.31;98335.16;5052017;28;20501;-80
2022/04/17 08:30:44;;;;;;;4.33;2.33;;;8.50;55.50;;;7.61;44.02;98332.06;5068006;28;20474;-80
2022/04/17 08:33:11;;;;;;;6.35;2.67;;;8.60;56.20;;;7.62;45.57;98338.13;5052063;28;20933;-79
2022/04/17 08:35:37;;;;;;;6.78;2.83;;;8.60;57.60;;;7.77;47.20;98333.41;5051969;28;20413;-78
2022/04/17 08:38:04;;;;;;;3.77;2.47;;;8.80;60.00;;;7.83;44.26;98337.84;5052450;28;20424;-79
2022/04/17 08:40:31;;;;;;;5.65;2.92;;;8.80;56.20;;;7.88;44.70;98331.97;5051755;28;20397;-80
2022/04/17 08:42:58;;;;;;;5.10;2.60;;;8.90;57.10;;;7.92;44.54;98336.59;5051279;28;20417;-80
2022/04/17 08:45:25;;;;;;;6.60;2.53;;;8.90;56.60;;;7.99;43.95;98326.00;5052211;28;20397;-80
2022/04/17 08:47:53;;;;;;;4.95;2.63;;;9.00;56.00;;;8.14;43.91;98321.25;5051014;28;20887;-79
2022/04/17 08:50:21;;;;;;;3.10;2.40;;;9.00;55.40;;;8.11;42.37;98311.94;5033462;28;20500;-78
2022/04/17 08:52:49;;;;;;;4.95;2.70;;;9.10;53.90;;;8.09;44.30;98302.63;5051855;28;20397;-74
2022/04/17 08:55:16;;;;;;;4.03;2.50;;;9.10;55.90;;;8.21;45.51;98292.19;5050080;28;20402;-77
2022/04/17 08:57:42;;;;;;;6.38;2.38;;;9.20;57.50;;;8.27;45.69;98292.16;5054339;28;20421;-77
2022/04/17 09:00:14;;;;;;;4.85;2.75;;;9.20;57.20;;;8.29;46.31;98289.31;5057512;28;20442;-77
2022/04/17 09:02:40;;;;;;;3.88;2.45;;;9.30;58.30;;;8.39;46.54;98289.66;5048690;28;20408;-76
2022/04/17 09:05:08;;;;;;;7.25;2.90;;;9.40;58.50;;;8.51;44.14;98283.47;5049772;28;21677;-76
2022/04/17 09:07:44;;;;;;;4.90;2.47;;;9.50;56.40;;;8.49;40.81;98269.69;5048124;28;20401;-76
2022/04/17 09:10:10;;;;;;;5.40;2.25;;;9.50;52.20;;;8.53;41.82;98264.78;5049899;28;20978;-77
2022/04/17 09:12:36;;;;;;;4.20;2.50;;;9.50;53.20;;;8.57;42.78;98265.19;5050656;28;20480;-77
2022/04/17 09:15:03;;;;;;;4.43;2.22;;;9.60;53.80;;;8.63;44.59;98274.88;5050423;28;20401;-76
2022/04/17 09:17:30;;;;;;;5.17;2.43;;;9.60;56.30;;;8.63;45.99;98262.47;5050225;28;21277;-76
2022/04/17 09:19:56;;;;;;;3.40;2.40;;;9.60;57.80;;;8.77;40.93;98261.34;5051680;28;20508;-79
2022/04/17 09:22:22;;;;;;;3.78;2.30;;;9.70;52.90;;;8.78;42.15;98257.66;5050268;28;20872;-78
2022/04/17 09:24:50;;;;;;;4.90;2.60;;;9.80;53.30;;;8.89;40.52;98248.19;5032516;28;20455;-76
2022/04/17 09:27:16;;;;;;;4.63;2.27;;;9.90;51.60;;;8.99;40.46;98250.34;5048311;28;20397;-75
2022/04/17 09:29:42;;;;;;;6.43;2.55;;;9.90;52.10;;;8.97;41.19;98244.47;5050134;28;20413;-78
2022/04/17 09:32:10;;;;;;;4.30;2.50;;;10.00;52.50;;;8.95;40.17;98235.97;5050162;28;20398;-78
2022/04/17 09:34:44;;;;;;;3.95;2.33;;;9.90;51.10;;;8.99;41.40;98237.94;5057482;28;20390;-80
2022/04/17 09:37:16;;;;;;;5.18;2.17;;;9.90;52.40;;;9.14;42.30;98229.66;5054816;28;20409;-80
2022/04/17 09:39:42;;;;;;;4.30;2.30;;;10.10;53.50;;;9.20;40.25;98236.69;5051084;28;20778;-80
2022/04/17 09:42:10;;;;;;;4.90;2.50;;;10.20;50.90;;;9.20;38.51;98239.34;5034274;28;20873;-79
2022/04/17 09:44:47;;;;;;;4.10;2.05;;;10.10;49.10;;;9.25;39.97;98231.53;5050813;28;20778;-76
2022/04/17 09:47:19;;;;;;;4.10;2.00;;;10.20;50.20;;;9.32;41.37;98240.22;5052211;28;20959;-79
2022/04/17 09:49:58;;;;;;;6.57;2.63;;;10.30;52.30;;;9.43;38.47;98236.81;5052119;28;20386;-79
2022/04/17 09:52:26;;;;;;;4.82;2.20;;;10.40;49.80;;;9.45;38.67;98242.69;5049546;28;20397;-79
2022/04/17 09:54:53;;;;;;;5.82;2.15;;;10.40;49.40;;;9.54;39.30;98230.00;5044113;28;20451;-78
2022/04/17 09:57:28;;;;;;;5.70;2.25;;;10.40;49.80;;;9.64;40.41;98232.88;5049543;28;20422;-78
2022/04/17 09:59:55;;;;;;;4.60;2.28;;;10.60;51.10;;;9.65;38.71;98227.38;5047313;28;20409;-78
2022/04/17 10:02:22;;;;;;;5.65;2.20;;;10.60;49.80;;;9.69;38.53;98218.00;5049280;28;20798;-78
2022/04/17 10:04:48;;;;;;;5.97;2.38;;;10.60;48.70;;;9.93;39.22;98223.31;5050135;28;20393;-78
2022/04/17 10:07:18;;;;;;;4.03;2.30;;;10.80;49.60;;;10.05;41.86;98219.69;5049775;28;20752;-77
2022/04/17 10:09:46;;;;;;;5.78;2.20;;;10.90;52.60;;;10.26;42.19;98221.00;5049505;28;20913;-77
2022/04/17 10:12:19;;;;;;;3.83;2.40;;;11.10;53.00;;;10.48;42.06;98203.53;5049023;28;20413;-78
2022/04/17 10:14:48;;;;;;;5.00;2.13;;;11.30;53.00;;;10.73;41.80;98208.59;5050157;28;20482;-80
2022/04/17 10:17:17;;;;;;;4.60;2.13;;;11.60;52.60;;;11.09;42.74;98206.72;5047559;28;20413;-80
2022/04/17 10:19:46;;;;;;;4.65;1.73;;;11.80;53.70;;;11.55;43.65;98211.06;5050121;28;20413;-78
2022/04/17 10:22:12;;;;;;;3.75;1.90;;;12.20;54.90;;;11.89;41.19;98201.34;5048334;28;20496;-80
2022/04/17 10:24:51;;;;;;;4.15;1.75;;;12.60;52.90;;;12.48;39.90;98205.22;5056765;28;20398;-80
2022/04/17 10:27:20;;;;;;;3.92;1.77;;;13.10;50.20;;;12.76;37.53;98209.63;5048585;28;20398;-81
2022/04/17 10:29:54;;;;;;;3.47;2.00;;;13.50;47.60;;;13.24;38.45;98200.16;5051585;28;20500;-79
2022/04/17 10:32:52;;;;;;;4.97;1.93;;;13.80;48.30;;;13.23;32.92;98199.34;5049256;28;20443;-83
2022/04/17 10:38:23;;;;;;;7.53;1.98;;;14.20;44.40;;;14.22;35.20;98199.03;5044717;28;20433;-72
2022/04/17 10:40:53;;;;;;;4.90;1.40;;;14.70;44.80;;;14.95;36.13;98197.41;5045798;28;20409;-73
2022/04/17 10:43:19;;;;;;;6.27;1.50;;;15.40;45.80;;;15.59;36.80;98186.47;5043289;28;20883;-74
2022/04/17 10:46:11;;;;;;;2.63;1.33;;;16.00;46.70;;;16.14;34.06;98186.56;5042391;28;20844;-73
2022/04/17 10:48:45;;;;;;;3.38;1.60;;;16.60;43.50;;;16.92;33.33;98188.88;5042510;28;20409;-73